createdAt,value
2019-03-22T00:02:15.239Z,34.40
2019-03-22T00:04:41.818Z,36.20
2019-03-22T00:07:08.057Z,37.50
2019-03-22T00:09:34.284Z,36.27
2019-03-22T00:12:00.515Z,37.93
2019-03-22T00:14:26.761Z,35.63
2019-03-22T00:16:52.999Z,37.27
2019-03-22T00:19:19.227Z,37.57
2019-03-22T00:21:45.471Z,40.53
2019-03-22T00:24:11.692Z,40.07
2019-03-22T00:26:37.931Z,35.97
2019-03-22T00:29:04.491Z,44.37
2019-03-22T00:31:30.697Z,44.30
2019-03-22T00:33:56.932Z,43.87
2019-03-22T00:36:23.148Z,45.77
2019-03-22T00:38:49.716Z,44.20
2019-03-22T00:41:15.941Z,45.13
2019-03-22T00:43:42.511Z,50.23
2019-03-22T00:46:08.728Z,49.90
2019-03-22T00:48:34.974Z,43.53
2019-03-22T00:51:01.468Z,52.93
2019-03-22T00:53:27.711Z,49.03
2019-03-22T00:55:53.935Z,45.33
2019-03-22T00:58:20.171Z,42.03
2019-03-22T01:00:46.396Z,44.63
2019-03-22T01:03:12.638Z,47.27
2019-03-22T01:05:38.959Z,45.50
2019-03-22T01:08:05.206Z,43.67
2019-03-22T01:10:31.627Z,44.20
2019-03-22T01:12:57.868Z,41.43
2019-03-22T01:15:24.095Z,43.97
2019-03-22T01:17:50.316Z,38.00
2019-03-22T01:20:16.578Z,36.23
2019-03-22T01:22:43.158Z,39.93
2019-03-22T01:25:10.013Z,39.47
2019-03-22T01:27:40.832Z,35.70
2019-03-22T01:30:10.476Z,39.70
2019-03-22T01:32:36.704Z,38.67
2019-03-22T01:35:05.241Z,39.40
2019-03-22T01:37:31.466Z,45.93
2019-03-22T01:39:58.024Z,37.37
2019-03-22T01:42:24.670Z,40.63
2019-03-22T01:44:50.891Z,39.17
2019-03-22T01:47:17.151Z,37.20
2019-03-22T01:49:43.368Z,39.03
2019-03-22T01:52:09.623Z,38.30
2019-03-22T01:54:35.876Z,39.93
2019-03-22T01:57:02.196Z,42.13
2019-03-22T01:59:28.795Z,41.47
2019-03-22T02:01:55.020Z,41.40
2019-03-22T02:04:21.758Z,39.07
2019-03-22T02:06:48.086Z,38.37
2019-03-22T02:09:14.333Z,44.70
2019-03-22T02:11:40.855Z,43.03
2019-03-22T02:14:07.203Z,41.80
2019-03-22T02:16:33.424Z,47.43
2019-03-22T02:18:59.647Z,42.73
2019-03-22T02:21:26.383Z,40.53
2019-03-22T02:23:52.612Z,48.13
2019-03-22T02:26:18.859Z,37.47
2019-03-22T02:28:45.080Z,42.33
2019-03-22T02:31:11.330Z,41.97
2019-03-22T02:33:37.545Z,37.97
2019-03-22T02:36:03.880Z,38.77
2019-03-22T02:38:30.102Z,42.63
2019-03-22T02:40:56.339Z,40.63
2019-03-22T02:43:22.944Z,42.23
2019-03-22T02:45:49.181Z,43.00
2019-03-22T02:48:15.413Z,39.37
2019-03-22T02:50:41.655Z,41.90
2019-03-22T02:53:07.984Z,43.80
2019-03-22T02:55:34.201Z,39.83
2019-03-22T02:58:00.536Z,40.33
2019-03-22T03:00:26.942Z,39.73
2019-03-22T03:02:53.181Z,40.77
2019-03-22T03:05:19.409Z,38.63
2019-03-22T03:07:46.159Z,38.80
2019-03-22T03:10:14.076Z,41.27
2019-03-22T03:12:40.912Z,37.63
2019-03-22T03:15:13.451Z,40.80
2019-03-22T03:17:39.701Z,41.90
2019-03-22T03:20:09.681Z,38.03
2019-03-22T03:22:35.907Z,38.50
2019-03-22T03:25:04.748Z,39.63
2019-03-22T03:27:31.255Z,42.00
2019-03-22T03:29:57.926Z,42.20
2019-03-22T03:32:24.275Z,41.53
2019-03-22T03:34:50.879Z,37.57
2019-03-22T03:37:17.117Z,41.70
2019-03-22T03:39:43.363Z,42.80
2019-03-22T03:42:09.636Z,42.97
2019-03-22T03:44:35.987Z,40.77
2019-03-22T03:47:02.200Z,40.80
2019-03-22T03:49:28.457Z,40.60
2019-03-22T03:51:54.684Z,37.60
2019-03-22T03:54:20.907Z,41.30
2019-03-22T03:56:47.152Z,41.50
2019-03-22T03:59:13.372Z,44.37
2019-03-22T04:01:39.634Z,41.10
2019-03-22T04:04:05.855Z,38.20
2019-03-22T04:06:32.112Z,43.07
2019-03-22T04:08:58.324Z,43.60
2019-03-22T04:11:24.548Z,38.83
2019-03-22T04:13:50.788Z,42.87
2019-03-22T04:16:17.130Z,43.83
2019-03-22T04:18:43.403Z,47.90
2019-03-22T04:21:09.736Z,44.63
2019-03-22T04:23:35.987Z,38.97
2019-03-22T04:26:02.222Z,42.40
2019-03-22T04:28:28.478Z,41.30
2019-03-22T04:30:54.692Z,42.77
2019-03-22T04:33:20.942Z,38.77
2019-03-22T04:35:47.165Z,37.50
2019-03-22T04:38:13.925Z,42.90
2019-03-22T04:40:40.186Z,39.33
2019-03-22T04:43:06.451Z,43.50
2019-03-22T04:45:34.988Z,40.20
2019-03-22T04:48:17.079Z,41.10
2019-03-22T04:50:46.116Z,40.30
2019-03-22T04:53:16.140Z,38.67
2019-03-22T04:55:46.207Z,40.70
2019-03-22T04:58:13.540Z,41.20
2019-03-22T05:00:41.295Z,38.60
2019-03-22T05:03:08.643Z,42.53
2019-03-22T05:05:35.270Z,42.17
2019-03-22T05:08:02.901Z,41.57
2019-03-22T05:10:29.743Z,41.97
2019-03-22T05:12:58.880Z,44.80
2019-03-22T05:15:25.532Z,40.37
2019-03-22T05:17:51.972Z,41.90
2019-03-22T05:20:20.923Z,42.23
2019-03-22T05:22:48.685Z,42.03
2019-03-22T05:25:17.041Z,45.50
2019-03-22T05:27:44.668Z,36.70
2019-03-22T05:30:38.946Z,36.63
2019-03-22T05:33:05.516Z,40.17
2019-03-22T05:35:31.776Z,43.87
2019-03-22T05:37:58.035Z,45.00
2019-03-22T05:40:24.278Z,42.67
2019-03-22T05:42:50.608Z,46.03
2019-03-22T05:45:17.981Z,47.10
2019-03-22T05:47:44.260Z,41.23
2019-03-22T05:50:10.540Z,45.70
2019-03-22T05:52:39.521Z,44.67
2019-03-22T05:55:06.795Z,50.37
2019-03-22T05:57:33.042Z,50.80
2019-03-22T05:59:59.367Z,50.73
2019-03-22T06:02:26.058Z,46.37
2019-03-22T06:04:52.267Z,43.73
2019-03-22T06:07:18.521Z,50.03
2019-03-22T06:09:44.755Z,48.00
2019-03-22T06:12:11.243Z,65.10
2019-03-22T06:14:37.481Z,59.57
2019-03-22T06:17:04.294Z,49.50
2019-03-22T06:19:30.562Z,59.50
2019-03-22T06:21:57.127Z,49.83
2019-03-22T06:24:23.364Z,48.43
2019-03-22T06:26:49.634Z,51.20
2019-03-22T06:29:15.877Z,53.23
2019-03-22T06:31:42.159Z,54.43
2019-03-22T06:34:08.404Z,54.63
2019-03-22T06:36:34.616Z,56.67
2019-03-22T06:39:00.880Z,60.93
2019-03-22T06:41:27.101Z,59.07
2019-03-22T06:43:53.718Z,56.00
2019-03-22T06:46:19.944Z,53.67
2019-03-22T06:48:46.480Z,54.17
2019-03-22T06:51:13.122Z,52.07
2019-03-22T06:53:39.350Z,51.70
2019-03-22T06:56:05.691Z,56.57
2019-03-22T06:58:31.959Z,60.87
2019-03-22T07:00:58.287Z,63.47
2019-03-22T07:03:24.581Z,64.00
2019-03-22T07:05:50.831Z,58.70
2019-03-22T07:08:17.092Z,59.53
2019-03-22T07:10:43.356Z,55.57
2019-03-22T07:13:09.600Z,58.60
2019-03-22T07:15:35.848Z,50.03
2019-03-22T07:18:02.285Z,53.10
2019-03-22T07:20:28.560Z,55.40
2019-03-22T07:22:55.128Z,50.70
2019-03-22T07:25:21.417Z,53.33
2019-03-22T07:27:47.632Z,56.47
2019-03-22T07:30:19.064Z,55.00
2019-03-22T07:32:43.661Z,51.83
2019-03-22T07:35:10.008Z,55.70
2019-03-22T07:37:36.235Z,49.80
2019-03-22T07:40:05.308Z,52.50
2019-03-22T07:42:31.579Z,55.63
2019-03-22T07:44:57.847Z,47.17
2019-03-22T07:47:24.110Z,59.47
2019-03-22T07:49:50.352Z,49.13
2019-03-22T07:52:16.638Z,58.33
2019-03-22T07:54:43.176Z,50.03
2019-03-22T07:57:09.439Z,48.67
2019-03-22T07:59:35.668Z,52.50
2019-03-22T08:02:01.904Z,53.07
2019-03-22T08:04:28.225Z,56.17
2019-03-22T08:06:54.811Z,55.23
2019-03-22T08:09:21.041Z,53.70
2019-03-22T08:11:47.418Z,50.50
2019-03-22T08:14:16.247Z,58.20
2019-03-22T08:16:41.833Z,60.27
2019-03-22T08:19:08.171Z,56.93
2019-03-22T08:21:34.457Z,52.13
2019-03-22T08:24:20.563Z,55.37
2019-03-22T08:26:46.771Z,51.90
2019-03-22T08:29:13.026Z,52.97
2019-03-22T08:31:39.634Z,53.30
2019-03-22T08:34:06.168Z,48.70
2019-03-22T08:36:32.403Z,52.53
2019-03-22T08:38:58.766Z,56.20
2019-03-22T08:41:25.065Z,53.60
2019-03-22T08:43:51.293Z,50.33
2019-03-22T08:46:17.530Z,51.23
2019-03-22T08:48:43.788Z,49.90
2019-03-22T08:51:10.126Z,46.10
2019-03-22T08:53:36.359Z,46.87
2019-03-22T08:56:02.831Z,46.60
2019-03-22T08:58:29.104Z,40.37
2019-03-22T09:00:57.717Z,44.03
2019-03-22T09:03:23.384Z,45.33
2019-03-22T09:05:49.736Z,43.20
2019-03-22T09:08:16.272Z,48.30
2019-03-22T09:10:42.616Z,48.60
2019-03-22T09:13:08.866Z,44.70
2019-03-22T09:15:40.950Z,47.80
2019-03-22T09:18:03.355Z,45.70
2019-03-22T09:20:29.763Z,50.17
2019-03-22T09:22:55.972Z,40.50
2019-03-22T09:25:22.270Z,40.40
2019-03-22T09:27:48.472Z,44.40
2019-03-22T09:30:14.931Z,46.53
2019-03-22T09:32:41.164Z,43.90
2019-03-22T09:35:07.356Z,44.50
2019-03-22T09:37:33.754Z,45.00
2019-03-22T09:40:00.455Z,41.90
2019-03-22T09:42:26.744Z,44.27
2019-03-22T09:44:53.006Z,41.30
2019-03-22T09:47:19.206Z,50.97
2019-03-22T09:49:45.836Z,52.00
2019-03-22T09:52:12.073Z,49.57
2019-03-22T09:54:38.273Z,43.30
2019-03-22T09:57:04.789Z,45.80
2019-03-22T09:59:31.367Z,44.73
2019-03-22T10:01:57.632Z,44.73
2019-03-22T10:04:27.037Z,46.80
2019-03-22T10:06:53.619Z,43.43
2019-03-22T10:09:19.828Z,43.00
2019-03-22T10:11:46.148Z,44.80
2019-03-22T10:14:12.323Z,44.77
2019-03-22T10:16:38.632Z,43.77
2019-03-22T10:19:04.842Z,46.73
2019-03-22T10:21:31.081Z,41.93
2019-03-22T10:23:57.325Z,43.97
2019-03-22T10:26:23.617Z,51.10
2019-03-22T10:28:49.829Z,48.20
2019-03-22T10:31:16.479Z,49.07
2019-03-22T10:33:42.727Z,48.27
2019-03-22T10:36:09.076Z,44.27
2019-03-22T10:38:35.319Z,42.97
2019-03-22T10:41:01.575Z,43.30
2019-03-22T10:43:27.893Z,55.33
2019-03-22T10:45:54.263Z,46.57
2019-03-22T10:48:20.492Z,48.87
2019-03-22T10:50:46.734Z,50.63
2019-03-22T10:53:12.962Z,45.17
2019-03-22T10:55:39.211Z,47.07
2019-03-22T10:58:19.750Z,48.13
2019-03-22T11:00:33.635Z,49.30
2019-03-22T11:02:59.847Z,46.77
2019-03-22T11:05:26.062Z,46.07
2019-03-22T11:07:52.309Z,48.07
2019-03-22T11:10:18.827Z,48.73
2019-03-22T11:12:45.085Z,44.57
2019-03-22T11:15:12.528Z,50.60
2019-03-22T11:17:38.744Z,45.13
2019-03-22T11:20:07.988Z,44.83
2019-03-22T11:22:34.216Z,42.67
2019-03-22T11:25:00.466Z,47.50
2019-03-22T11:27:26.683Z,45.53
2019-03-22T11:29:52.903Z,49.07
2019-03-22T11:32:20.432Z,51.67
2019-03-22T11:34:46.650Z,47.50
2019-03-22T11:37:13.420Z,46.37
2019-03-22T11:39:40.804Z,46.93
2019-03-22T11:42:07.996Z,50.47
2019-03-22T11:44:34.211Z,49.73
2019-03-22T11:47:00.760Z,48.43
2019-03-22T11:49:27.149Z,55.07
2019-03-22T11:51:53.347Z,49.67
2019-03-22T11:54:19.600Z,47.93
2019-03-22T11:56:46.187Z,50.07
2019-03-22T11:59:12.407Z,48.63
2019-03-22T12:01:38.653Z,53.53
2019-03-22T12:04:04.880Z,50.77
2019-03-22T12:06:31.099Z,52.77
2019-03-22T12:08:57.318Z,48.43
2019-03-22T12:11:23.576Z,54.53
2019-03-22T12:13:50.086Z,54.23
2019-03-22T12:16:16.257Z,52.20
2019-03-22T12:18:42.647Z,51.40
2019-03-22T12:21:09.300Z,51.70
2019-03-22T12:23:35.539Z,53.50
2019-03-22T12:26:02.062Z,53.47
2019-03-22T12:28:28.284Z,50.73
2019-03-22T12:30:55.036Z,45.53
2019-03-22T12:33:21.775Z,48.77
2019-03-22T12:35:48.023Z,56.80
2019-03-22T12:38:14.244Z,50.77
2019-03-22T12:40:40.507Z,52.00
2019-03-22T12:43:06.947Z,51.37
2019-03-22T12:45:33.863Z,47.67
2019-03-22T12:48:00.246Z,47.10
2019-03-22T12:50:26.963Z,54.50
2019-03-22T12:52:53.518Z,50.23
2019-03-22T12:55:20.062Z,52.77
2019-03-22T12:57:46.811Z,52.00
2019-03-22T13:00:23.703Z,52.20
2019-03-22T13:02:50.635Z,53.00
2019-03-22T13:05:17.274Z,55.93
2019-03-22T13:07:43.610Z,52.50
2019-03-22T13:10:16.405Z,53.23
2019-03-22T13:12:42.631Z,50.37
2019-03-22T13:15:09.195Z,55.43
2019-03-22T13:17:35.845Z,48.60
2019-03-22T13:20:05.353Z,54.40
2019-03-22T13:22:31.583Z,56.03
2019-03-22T13:24:57.815Z,61.60
2019-03-22T13:27:24.043Z,49.93
2019-03-22T13:29:50.292Z,54.90
2019-03-22T13:32:16.503Z,50.40
2019-03-22T13:34:42.758Z,51.63
2019-03-22T13:37:08.983Z,52.77
2019-03-22T13:39:35.211Z,49.60
2019-03-22T13:42:01.468Z,56.83
2019-03-22T13:44:27.703Z,56.90
2019-03-22T13:46:53.959Z,54.30
2019-03-22T13:49:20.184Z,51.43
2019-03-22T13:51:46.813Z,54.83
2019-03-22T13:54:13.137Z,54.57
2019-03-22T13:56:39.368Z,55.97
2019-03-22T13:59:05.896Z,52.47
2019-03-22T14:01:32.428Z,58.80
2019-03-22T14:03:58.657Z,57.03
2019-03-22T14:06:24.897Z,58.03
2019-03-22T14:08:51.116Z,53.90
2019-03-22T14:11:17.742Z,54.23
2019-03-22T14:13:44.485Z,55.23
2019-03-22T14:16:10.723Z,55.53
2019-03-22T14:18:37.259Z,57.40
2019-03-22T14:21:03.496Z,53.03
2019-03-22T14:23:29.843Z,52.13
2019-03-22T14:25:56.159Z,55.80
2019-03-22T14:28:22.406Z,52.07
2019-03-22T14:30:48.955Z,55.33
2019-03-22T14:33:15.198Z,56.80
2019-03-22T14:35:41.422Z,58.27
2019-03-22T14:38:07.633Z,53.37
2019-03-22T14:40:33.873Z,55.33
2019-03-22T14:43:00.124Z,55.40
2019-03-22T14:45:26.379Z,55.03
2019-03-22T14:47:52.588Z,51.37
2019-03-22T14:50:18.840Z,60.80
2019-03-22T14:52:45.071Z,55.03
2019-03-22T14:55:11.586Z,56.10
2019-03-22T14:57:47.830Z,51.97
2019-03-22T15:00:08.839Z,52.37
2019-03-22T15:02:35.079Z,61.70
2019-03-22T15:05:01.464Z,55.27
2019-03-22T15:07:27.750Z,52.07
2019-03-22T15:09:53.975Z,55.10
2019-03-22T15:12:20.394Z,54.50
2019-03-22T15:15:01.365Z,54.03
2019-03-22T15:17:38.755Z,51.23
2019-03-22T15:20:10.332Z,53.73
2019-03-22T15:22:41.296Z,50.73
2019-03-22T15:25:25.470Z,52.70
2019-03-22T15:27:59.697Z,52.40
2019-03-22T15:30:42.954Z,49.00
2019-03-22T15:33:20.154Z,49.87
2019-03-22T15:35:57.238Z,51.23
2019-03-22T15:38:25.595Z,55.80
2019-03-22T15:40:51.904Z,53.20
2019-03-22T15:43:18.160Z,51.47
2019-03-22T15:45:44.747Z,49.00
2019-03-22T15:48:11.271Z,53.40
2019-03-22T15:50:37.492Z,59.43
2019-03-22T15:53:03.932Z,54.50
2019-03-22T15:55:30.153Z,54.37
2019-03-22T15:57:56.402Z,52.50
2019-03-22T16:00:22.915Z,53.07
2019-03-22T16:02:49.175Z,53.27
2019-03-22T16:05:15.803Z,56.63
2019-03-22T16:07:42.345Z,52.67
2019-03-22T16:10:10.255Z,59.40
2019-03-22T16:12:36.495Z,51.10
2019-03-22T16:15:06.538Z,56.20
2019-03-22T16:17:32.794Z,54.57
2019-03-22T16:19:59.023Z,48.90
2019-03-22T16:22:25.264Z,53.20
2019-03-22T16:24:51.526Z,53.93
2019-03-22T16:27:17.749Z,52.97
2019-03-22T16:29:43.993Z,59.43
2019-03-22T16:32:10.229Z,53.80
2019-03-22T16:34:36.466Z,53.50
2019-03-22T16:37:03.145Z,55.53
2019-03-22T16:39:29.403Z,52.40
2019-03-22T16:41:55.648Z,52.03
2019-03-22T16:44:22.293Z,52.63
2019-03-22T16:46:48.743Z,54.80
2019-03-22T16:49:15.023Z,55.37
2019-03-22T16:51:41.263Z,53.37
2019-03-22T16:54:07.503Z,53.17
2019-03-22T16:56:33.749Z,53.10
2019-03-22T16:58:59.969Z,57.60
2019-03-22T17:01:26.320Z,53.27
2019-03-22T17:03:52.609Z,52.17
2019-03-22T17:06:19.365Z,51.93
2019-03-22T17:08:46.002Z,52.20
2019-03-22T17:11:12.244Z,54.07
2019-03-22T17:13:38.836Z,53.30
2019-03-22T17:16:05.084Z,62.80
2019-03-22T17:18:31.318Z,54.60
2019-03-22T17:20:57.560Z,60.87
2019-03-22T17:23:23.808Z,56.27
2019-03-22T17:25:50.014Z,59.77
2019-03-22T17:28:16.262Z,54.10
2019-03-22T17:30:42.857Z,54.20
2019-03-22T17:33:09.392Z,54.73
2019-03-22T17:35:35.620Z,56.47
2019-03-22T17:38:02.040Z,55.67
2019-03-22T17:40:28.280Z,59.17
2019-03-22T17:42:54.951Z,56.63
2019-03-22T17:45:21.332Z,53.13
2019-03-22T17:47:47.603Z,49.83
2019-03-22T17:50:15.142Z,56.20
2019-03-22T17:52:41.338Z,56.50
2019-03-22T17:55:09.477Z,50.57
2019-03-22T17:57:35.695Z,53.53
2019-03-22T18:00:04.921Z,54.67
2019-03-22T18:02:31.136Z,58.73
2019-03-22T18:04:57.372Z,53.20
2019-03-22T18:07:23.639Z,56.37
2019-03-22T18:09:49.882Z,56.57
2019-03-22T18:12:16.138Z,53.90
2019-03-22T18:14:42.777Z,59.53
2019-03-22T18:17:09.395Z,54.57
2019-03-22T18:19:35.623Z,57.90
2019-03-22T18:22:01.882Z,57.07
2019-03-22T18:24:28.561Z,57.33
2019-03-22T18:26:55.592Z,53.80
2019-03-22T18:29:22.156Z,58.33
2019-03-22T18:31:48.492Z,54.40
2019-03-22T18:34:14.746Z,56.77
2019-03-22T18:36:41.369Z,56.23
2019-03-22T18:39:07.575Z,57.77
2019-03-22T18:41:33.959Z,58.50
2019-03-22T18:44:00.390Z,58.40
2019-03-22T18:46:26.770Z,56.50
2019-03-22T18:48:53.385Z,58.07
2019-03-22T18:51:19.748Z,61.17
2019-03-22T18:53:46.143Z,56.30
2019-03-22T18:56:12.507Z,57.07
2019-03-22T18:58:38.858Z,58.50
2019-03-22T19:01:05.424Z,54.17
2019-03-22T19:03:32.201Z,61.73
2019-03-22T19:05:58.581Z,57.73
2019-03-22T19:08:25.464Z,56.93
2019-03-22T19:10:57.400Z,60.17
2019-03-22T19:13:30.668Z,57.27
2019-03-22T19:15:52.041Z,60.00
2019-03-22T19:18:18.322Z,53.13
2019-03-22T19:20:44.581Z,55.80
2019-03-22T19:23:10.983Z,56.80
2019-03-22T19:25:37.338Z,55.80
2019-03-22T19:28:04.197Z,59.50
2019-03-22T19:30:30.908Z,54.80
2019-03-22T19:32:57.250Z,54.70
2019-03-22T19:35:23.935Z,53.13
2019-03-22T19:37:52.763Z,56.20
2019-03-22T19:40:19.345Z,56.20
2019-03-22T19:42:46.191Z,54.27
2019-03-22T19:45:14.192Z,56.03
2019-03-22T19:47:40.719Z,58.40
2019-03-22T19:50:14.512Z,56.77
2019-03-22T19:52:43.982Z,54.90
2019-03-22T19:55:11.309Z,58.30
2019-03-22T19:57:37.879Z,58.70
2019-03-22T20:00:12.124Z,62.23
2019-03-22T20:02:38.424Z,58.73
2019-03-22T20:05:07.433Z,57.30
2019-03-22T20:07:34.184Z,58.03
2019-03-22T20:10:00.568Z,59.03
2019-03-22T20:12:26.996Z,61.23
2019-03-22T20:14:53.305Z,64.93
2019-03-22T20:17:19.900Z,61.20
2019-03-22T20:19:46.549Z,67.30
2019-03-22T20:22:13.115Z,56.73
2019-03-22T20:24:39.447Z,61.03
2019-03-22T20:27:06.585Z,55.27
2019-03-22T20:29:33.102Z,61.10
2019-03-22T20:31:59.694Z,66.47
2019-03-22T20:34:26.151Z,60.60
2019-03-22T20:36:52.725Z,58.80
2019-03-22T20:39:23.328Z,60.87
2019-03-22T20:41:49.897Z,62.80
2019-03-22T20:44:16.724Z,61.57
2019-03-22T20:46:43.188Z,63.80
2019-03-22T20:49:09.579Z,64.73
2019-03-22T20:51:37.892Z,67.57
2019-03-22T20:54:04.291Z,63.67
2019-03-22T20:56:30.748Z,65.47
2019-03-22T20:58:57.215Z,67.83
2019-03-22T21:01:23.646Z,58.13
2019-03-22T21:03:50.174Z,66.40
2019-03-22T21:06:16.652Z,59.20
2019-03-22T21:08:42.958Z,63.10
2019-03-22T21:11:09.512Z,69.73
2019-03-22T21:13:36.014Z,64.50
2019-03-22T21:16:02.550Z,64.70
2019-03-22T21:18:29.350Z,62.47
2019-03-22T21:20:56.915Z,64.00
2019-03-22T21:23:23.543Z,63.90
2019-03-22T21:25:50.029Z,61.43
2019-03-22T21:28:16.727Z,60.17
2019-03-22T21:30:43.649Z,64.17
2019-03-22T21:33:10.209Z,63.23
2019-03-22T21:35:37.549Z,69.03
2019-03-22T21:38:10.802Z,62.80
2019-03-22T21:40:32.572Z,64.03
2019-03-22T21:42:59.182Z,68.00
2019-03-22T21:45:25.625Z,65.33
2019-03-22T21:47:52.085Z,65.50
2019-03-22T21:50:18.493Z,64.03
2019-03-22T21:52:45.249Z,67.77
2019-03-22T21:55:11.968Z,65.83
2019-03-22T21:57:38.398Z,66.13
2019-03-22T22:00:10.936Z,67.50
2019-03-22T22:02:37.735Z,68.37
2019-03-22T22:05:05.438Z,74.57
2019-03-22T22:07:32.289Z,63.90
2019-03-22T22:09:58.833Z,67.67
2019-03-22T22:12:25.511Z,69.23
2019-03-22T22:14:51.917Z,63.73
2019-03-22T22:17:18.594Z,67.73
2019-03-22T22:20:05.192Z,65.43
2019-03-22T22:22:31.418Z,73.47
2019-03-22T22:24:57.676Z,73.67
2019-03-22T22:27:24.284Z,66.67
2019-03-22T22:29:50.524Z,66.23
2019-03-22T22:32:16.776Z,62.43
2019-03-22T22:34:43.013Z,73.60
2019-03-22T22:37:09.318Z,66.43
2019-03-22T22:39:36.878Z,69.50
2019-03-22T22:42:03.691Z,68.30
2019-03-22T22:44:30.300Z,70.73
2019-03-22T22:46:56.524Z,64.73
2019-03-22T22:49:23.067Z,65.27
2019-03-22T22:51:49.608Z,66.27
2019-03-22T22:54:15.832Z,66.20
2019-03-22T22:56:42.056Z,68.07
2019-03-22T22:59:08.330Z,68.93
2019-03-22T23:01:34.863Z,74.83
2019-03-22T23:04:01.099Z,66.50
2019-03-22T23:06:27.819Z,71.23
2019-03-22T23:08:54.178Z,63.73
2019-03-22T23:11:22.434Z,74.70
2019-03-22T23:13:48.681Z,69.20
2019-03-22T23:16:15.277Z,68.67
2019-03-22T23:18:41.527Z,73.10
2019-03-22T23:21:07.752Z,71.87
2019-03-22T23:23:34.024Z,69.30
2019-03-22T23:26:00.249Z,68.57
2019-03-22T23:28:26.496Z,70.60
2019-03-22T23:30:53.269Z,70.70
2019-03-22T23:33:19.507Z,72.33
2019-03-22T23:35:46.023Z,69.00
2019-03-22T23:38:12.557Z,73.27
2019-03-22T23:40:38.825Z,68.33
2019-03-22T23:43:05.040Z,75.30
2019-03-22T23:45:31.309Z,72.77
2019-03-22T23:47:57.889Z,77.43
2019-03-22T23:50:24.102Z,65.83
2019-03-22T23:52:50.345Z,66.23
2019-03-22T23:55:16.570Z,72.60
2019-03-22T23:57:43.098Z,65.77
